createdAt,value
2024-01-15T00:00:37.728Z,98977.41
2024-01-15T00:03:13.110Z,98970.13
2024-01-15T00:05:40.243Z,98976.25
2024-01-15T00:08:08.712Z,98976.94
2024-01-15T00:10:35.778Z,98963.78
2024-01-15T00:13:02.876Z,98963.00
2024-01-15T00:15:30.083Z,98970.72
2024-01-15T00:17:57.245Z,98962.66
2024-01-15T00:20:24.334Z,98957.78
2024-01-15T00:22:51.312Z,98963.69
2024-01-15T00:25:19.141Z,98955.19
2024-01-15T00:27:46.162Z,98970.69
2024-01-15T00:30:13.791Z,98976.19
2024-01-15T00:32:41.157Z,98978.31
2024-01-15T00:35:08.602Z,98982.75
2024-01-15T00:37:35.608Z,98984.44
2024-01-15T00:40:03.049Z,98989.94
2024-01-15T00:42:30.065Z,98981.06
2024-01-15T00:44:57.104Z,98973.94
2024-01-15T00:47:24.189Z,98967.72
2024-01-15T00:49:51.285Z,98967.09
2024-01-15T00:52:18.313Z,98958.25
2024-01-15T00:54:45.611Z,98953.75
2024-01-15T00:57:12.779Z,98954.44
2024-01-15T00:59:40.780Z,98964.47
2024-01-15T01:02:07.893Z,98958.63
2024-01-15T01:04:34.976Z,98942.22
2024-01-15T01:07:02.049Z,98954.00
2024-01-15T01:09:31.510Z,98954.22
2024-01-15T01:11:58.643Z,98955.31
2024-01-15T01:14:25.623Z,98958.72
2024-01-15T01:16:52.814Z,98971.47
2024-01-15T01:19:20.130Z,98957.38
2024-01-15T01:21:47.292Z,98975.66
2024-01-15T01:24:14.584Z,98977.16
2024-01-15T01:26:41.935Z,98984.16
2024-01-15T01:29:08.950Z,98985.22
2024-01-15T01:31:36.182Z,98995.16
2024-01-15T01:34:03.340Z,99007.81
2024-01-15T01:36:30.438Z,98999.56
2024-01-15T01:38:57.685Z,98998.88
2024-01-15T01:41:25.498Z,99016.88
2024-01-15T01:43:52.533Z,99036.16
2024-01-15T01:46:19.882Z,99034.19
2024-01-15T01:48:46.995Z,99023.47
2024-01-15T01:51:14.871Z,99020.59
2024-01-15T01:53:42.527Z,99012.75
2024-01-15T01:56:10.541Z,99028.41
2024-01-15T01:58:37.876Z,99020.22
2024-01-15T02:01:58.166Z,99023.88
2024-01-15T02:04:26.110Z,98999.13
2024-01-15T02:06:53.457Z,99000.72
2024-01-15T02:09:20.708Z,98993.53
2024-01-15T02:11:48.780Z,99018.06
2024-01-15T02:14:15.946Z,99021.59
2024-01-15T02:16:43.096Z,99148.72
2024-01-15T02:19:17.172Z,99154.63
2024-01-15T02:21:44.670Z,99153.50
2024-01-15T02:24:12.570Z,99150.41
2024-01-15T02:26:39.913Z,99150.75
2024-01-15T02:29:09.500Z,99155.44
2024-01-15T02:31:38.219Z,99149.06
2024-01-15T02:34:05.564Z,99151.91
2024-01-15T02:36:32.778Z,99151.25
2024-01-15T02:38:59.875Z,99150.22
2024-01-15T02:41:27.766Z,99142.22
2024-01-15T02:43:54.801Z,99139.22
2024-01-15T02:46:21.760Z,99141.59
2024-01-15T02:48:49.026Z,99130.75
2024-01-15T02:51:16.447Z,99134.09
2024-01-15T02:53:43.920Z,99133.03
2024-01-15T02:56:11.215Z,99119.72
2024-01-15T02:58:38.765Z,99117.75
2024-01-15T03:01:06.489Z,99103.59
2024-01-15T03:03:34.904Z,99097.66
2024-01-15T03:06:04.185Z,99104.16
2024-01-15T03:08:31.399Z,99102.97
2024-01-15T03:10:59.734Z,99118.88
2024-01-15T03:13:26.804Z,99113.72
2024-01-15T03:15:53.841Z,99106.53
2024-01-15T03:18:20.928Z,99114.94
2024-01-15T03:20:48.177Z,99127.41
2024-01-15T03:23:15.129Z,99125.09
2024-01-15T03:25:42.539Z,99115.09
2024-01-15T03:28:09.578Z,99125.06
2024-01-15T03:30:36.966Z,99133.38
2024-01-15T03:33:04.038Z,99128.81
2024-01-15T03:35:32.220Z,99130.81
2024-01-15T03:37:59.335Z,99132.34
2024-01-15T03:40:26.387Z,99128.94
2024-01-15T03:42:55.636Z,99132.97
2024-01-15T03:45:22.751Z,99123.72
2024-01-15T03:47:49.933Z,99127.81
2024-01-15T03:50:17.183Z,99131.47
2024-01-15T03:52:44.149Z,99131.50
2024-01-15T03:55:11.222Z,99124.97
2024-01-15T03:57:38.498Z,99135.50
2024-01-15T04:00:06.463Z,99131.38
2024-01-15T04:02:33.447Z,99136.75
2024-01-15T04:05:00.497Z,99135.28
2024-01-15T04:07:27.640Z,99136.91
2024-01-15T04:09:54.647Z,99132.81
2024-01-15T04:12:21.716Z,99139.00
2024-01-15T04:14:48.720Z,99131.00
2024-01-15T04:17:15.667Z,99122.06
2024-01-15T04:19:45.496Z,99130.44
2024-01-15T04:22:13.182Z,99124.50
2024-01-15T04:24:40.354Z,99118.09
2024-01-15T04:27:08.629Z,99115.47
2024-01-15T04:29:38.404Z,99103.66
2024-01-15T04:32:07.415Z,99112.34
2024-01-15T04:34:34.605Z,99105.50
2024-01-15T04:37:01.709Z,99107.72
2024-01-15T04:39:28.981Z,99106.22
2024-01-15T04:41:56.071Z,99124.41
2024-01-15T04:44:23.922Z,99121.31
2024-01-15T04:46:51.002Z,99125.47
2024-01-15T04:49:18.149Z,99122.16
2024-01-15T04:51:45.277Z,99126.69
2024-01-15T04:54:12.858Z,99111.63
2024-01-15T04:56:39.925Z,99112.78
2024-01-15T04:59:06.867Z,99098.34
2024-01-15T05:01:34.269Z,99088.44
2024-01-15T05:04:01.697Z,99083.03
2024-01-15T05:06:29.432Z,99077.66
2024-01-15T05:08:56.415Z,99083.38
2024-01-15T05:11:23.549Z,99073.78
2024-01-15T05:13:50.544Z,99068.97
2024-01-15T05:16:17.566Z,99062.25
2024-01-15T05:18:44.898Z,99066.56
2024-01-15T05:21:12.628Z,99061.78
2024-01-15T05:23:39.622Z,99072.38
2024-01-15T05:26:06.722Z,99059.91
2024-01-15T05:28:33.662Z,99067.81
2024-01-15T05:31:01.315Z,99051.88
2024-01-15T05:33:28.550Z,99045.72
2024-01-15T05:35:56.000Z,99044.13
2024-01-15T05:38:23.161Z,99040.91
2024-01-15T05:40:50.219Z,99033.25
2024-01-15T05:43:17.280Z,99021.72
2024-01-15T05:45:45.315Z,99022.63
2024-01-15T05:48:13.785Z,99012.91
2024-01-15T05:50:41.113Z,99012.44
2024-01-15T05:53:08.043Z,99007.84
2024-01-15T05:55:36.399Z,99003.06
2024-01-15T05:58:03.508Z,99003.06
2024-01-15T06:00:30.615Z,98994.69
2024-01-15T06:02:57.682Z,98991.81
2024-01-15T06:05:24.665Z,98984.75
2024-01-15T06:07:51.632Z,98984.84
2024-01-15T06:10:18.713Z,98983.25
2024-01-15T06:12:45.800Z,98981.66
2024-01-15T06:15:13.730Z,98975.16
2024-01-15T06:17:40.937Z,98975.09
2024-01-15T06:20:08.677Z,98960.13
2024-01-15T06:22:36.991Z,98953.63
2024-01-15T06:25:04.463Z,98958.41
2024-01-15T06:27:31.473Z,98961.22
2024-01-15T06:29:58.565Z,98981.84
2024-01-15T06:32:25.927Z,98982.94
2024-01-15T06:34:52.950Z,98987.13
2024-01-15T06:37:21.704Z,98996.31
2024-01-15T06:39:51.606Z,98995.06
2024-01-15T06:42:20.115Z,99001.59
2024-01-15T06:44:47.058Z,98997.50
2024-01-15T06:47:14.094Z,99006.66
2024-01-15T06:49:41.196Z,99007.63
2024-01-15T06:52:08.349Z,99004.66
2024-01-15T06:54:35.490Z,99014.94
2024-01-15T06:57:02.705Z,99009.13
2024-01-15T06:59:30.167Z,99005.13
2024-01-15T07:01:57.542Z,99013.03
2024-01-15T07:04:24.571Z,99009.00
2024-01-15T07:06:51.628Z,99018.59
2024-01-15T07:09:20.090Z,99016.06
2024-01-15T07:11:50.362Z,99008.41
2024-01-15T07:14:18.144Z,98994.00
2024-01-15T07:16:48.545Z,98975.88
2024-01-15T07:19:16.728Z,98987.13
2024-01-15T07:21:44.711Z,98985.34
2024-01-15T07:24:12.317Z,98983.22
2024-01-15T07:26:39.429Z,98997.88
2024-01-15T07:29:06.410Z,98998.00
2024-01-15T07:31:34.147Z,98995.38
2024-01-15T07:34:01.605Z,98991.78
2024-01-15T07:36:28.871Z,99001.50
2024-01-15T07:38:55.940Z,98995.22
2024-01-15T07:41:23.106Z,99007.56
2024-01-15T07:43:50.213Z,99007.66
2024-01-15T07:46:17.387Z,99027.72
2024-01-15T07:48:44.947Z,99013.38
2024-01-15T07:51:12.267Z,99015.44
2024-01-15T07:53:39.603Z,99026.25
2024-01-15T07:56:06.745Z,99030.66
2024-01-15T07:58:33.900Z,99034.22
2024-01-15T08:01:01.080Z,99031.34
2024-01-15T08:03:28.558Z,99039.50
2024-01-15T08:05:56.918Z,99037.31
2024-01-15T08:08:24.451Z,99026.44
2024-01-15T08:10:51.428Z,99033.41
2024-01-15T08:13:18.507Z,99034.91
2024-01-15T08:15:45.751Z,99029.19
2024-01-15T08:18:12.993Z,99033.22
2024-01-15T08:20:40.435Z,99035.25
2024-01-15T08:23:07.730Z,99036.63
2024-01-15T08:25:34.668Z,99042.69
2024-01-15T08:28:01.813Z,99089.44
2024-01-15T08:30:29.570Z,99054.09
2024-01-15T08:33:02.343Z,99044.88
2024-01-15T08:35:36.576Z,99054.34
2024-01-15T08:38:04.121Z,99041.69
2024-01-15T08:40:32.074Z,99043.72
2024-01-15T08:42:59.375Z,99026.34
2024-01-15T08:45:27.114Z,99029.66
2024-01-15T08:47:54.848Z,99042.69
2024-01-15T08:50:21.932Z,99036.84
2024-01-15T08:52:49.085Z,99041.41
2024-01-15T08:55:16.035Z,99039.03
2024-01-15T08:57:43.137Z,99042.78
2024-01-15T09:00:10.976Z,99051.75
2024-01-15T09:02:38.512Z,99049.81
2024-01-15T09:05:06.095Z,99051.19
2024-01-15T09:07:33.869Z,99051.75
2024-01-15T09:10:01.089Z,99057.66
2024-01-15T09:12:29.090Z,99052.44
2024-01-15T09:14:56.961Z,99056.25
2024-01-15T09:17:26.943Z,99059.97
2024-01-15T09:19:54.238Z,99054.22
2024-01-15T09:22:21.350Z,99066.97
2024-01-15T09:24:48.991Z,99062.28
2024-01-15T09:27:16.117Z,99050.13
2024-01-15T09:29:44.214Z,99051.53
2024-01-15T09:32:11.212Z,99050.53
2024-01-15T09:34:38.441Z,99034.41
2024-01-15T09:37:06.013Z,99032.47
2024-01-15T09:39:33.081Z,99038.22
2024-01-15T09:42:00.805Z,99031.66
2024-01-15T09:44:28.511Z,99043.13
2024-01-15T09:46:57.642Z,99032.94
2024-01-15T09:49:26.392Z,99033.44
2024-01-15T09:52:03.340Z,99046.69
2024-01-15T09:54:38.118Z,99044.97
2024-01-15T09:57:05.387Z,99056.78
2024-01-15T09:59:32.895Z,99061.84
2024-01-15T10:02:00.341Z,99071.75
2024-01-15T10:04:27.417Z,99070.25
2024-01-15T10:06:55.694Z,99064.31
2024-01-15T10:09:22.835Z,99065.94
2024-01-15T10:11:49.977Z,99052.69
2024-01-15T10:14:17.815Z,99049.66
2024-01-15T10:16:45.197Z,99051.69
2024-01-15T10:19:12.482Z,99040.59
2024-01-15T10:21:39.792Z,99028.69
2024-01-15T10:24:07.401Z,99029.13
2024-01-15T10:26:34.906Z,99015.22
2024-01-15T10:29:01.998Z,99020.56
2024-01-15T10:31:30.852Z,99007.38
2024-01-15T10:34:13.499Z,99003.72
2024-01-15T10:36:42.173Z,99003.56
2024-01-15T10:39:09.419Z,98994.50
2024-01-15T10:41:36.578Z,98913.63
2024-01-15T10:44:03.755Z,98911.97
2024-01-15T10:46:31.342Z,98922.59
2024-01-15T10:48:58.450Z,98923.38
2024-01-15T10:51:27.383Z,98939.44
2024-01-15T10:53:55.035Z,98938.28
2024-01-15T10:56:24.337Z,98945.19
2024-01-15T10:58:51.848Z,98967.75
2024-01-15T11:01:19.065Z,98958.38
2024-01-15T11:03:46.272Z,98982.41
2024-01-15T11:06:23.395Z,98988.59
2024-01-15T11:08:53.679Z,98992.56
2024-01-15T11:11:23.378Z,98994.50
2024-01-15T11:13:52.955Z,99008.84
2024-01-15T11:16:20.082Z,99001.34
2024-01-15T11:18:59.471Z,99014.38
2024-01-15T11:21:28.611Z,99013.34
2024-01-15T11:23:58.628Z,99015.28
2024-01-15T11:26:45.534Z,99019.56
2024-01-15T11:29:32.144Z,99019.50
2024-01-15T11:32:01.803Z,99006.81
2024-01-15T11:34:51.925Z,99007.09
2024-01-15T11:37:20.146Z,99005.41
2024-01-15T11:39:50.815Z,98997.63
2024-01-15T11:42:17.988Z,99002.78
2024-01-15T11:44:45.983Z,98984.91
2024-01-15T11:47:16.428Z,98962.63
2024-01-15T11:50:09.898Z,98960.88
2024-01-15T11:52:38.213Z,98963.78
2024-01-15T11:55:23.314Z,98959.53
2024-01-15T11:57:55.692Z,98950.84
2024-01-15T12:00:23.837Z,98941.47
2024-01-15T12:02:52.357Z,98940.34
2024-01-15T12:05:21.556Z,98915.66
2024-01-15T12:07:49.991Z,98921.16
2024-01-15T12:10:20.709Z,98915.47
2024-01-15T12:13:07.925Z,98910.69
2024-01-15T12:15:35.442Z,98923.72
2024-01-15T12:18:04.081Z,98910.22
2024-01-15T12:20:32.237Z,98891.16
2024-01-15T12:23:02.479Z,98912.41
2024-01-15T12:25:35.293Z,98909.16
2024-01-15T12:28:02.817Z,98914.38
2024-01-15T12:30:32.952Z,98933.41
2024-01-15T12:33:04.394Z,98934.81
2024-01-15T12:35:31.630Z,98926.34
2024-01-15T12:37:58.676Z,98920.97
2024-01-15T12:40:25.821Z,98895.66
2024-01-15T12:42:52.992Z,98902.53
2024-01-15T12:45:20.743Z,98901.50
2024-01-15T12:47:48.072Z,98909.41
2024-01-15T12:50:19.723Z,98892.00
2024-01-15T12:52:48.310Z,98895.06
2024-01-15T12:55:16.062Z,98901.38
2024-01-15T12:57:43.639Z,98920.16
2024-01-15T13:00:15.031Z,98920.91
2024-01-15T13:02:45.662Z,98933.63
2024-01-15T13:05:14.411Z,98939.50
2024-01-15T13:07:42.741Z,98951.84
2024-01-15T13:10:13.500Z,98946.16
2024-01-15T13:12:42.757Z,98963.00
2024-01-15T13:15:14.891Z,98972.75
2024-01-15T13:17:43.547Z,98973.63
2024-01-15T13:20:12.763Z,98970.97
2024-01-15T13:22:41.680Z,98976.81
2024-01-15T13:25:10.146Z,98973.44
2024-01-15T13:27:39.166Z,98977.47
2024-01-15T13:30:08.721Z,98975.50
2024-01-15T13:32:36.930Z,98986.09
2024-01-15T13:35:08.284Z,98976.75
2024-01-15T13:37:36.036Z,98973.19
2024-01-15T13:40:04.938Z,98980.03
2024-01-15T13:42:32.121Z,98988.56
2024-01-15T13:44:59.688Z,98976.53
2024-01-15T13:47:27.544Z,98973.47
2024-01-15T13:49:54.995Z,98931.47
2024-01-15T13:52:22.093Z,98930.19
2024-01-15T13:54:50.727Z,98918.06
2024-01-15T13:57:21.066Z,98915.94
2024-01-15T13:59:50.688Z,98923.66
2024-01-15T14:02:20.900Z,98947.63
2024-01-15T14:04:50.360Z,99042.16
2024-01-15T14:07:18.095Z,99030.44
2024-01-15T14:09:45.391Z,99001.09
2024-01-15T14:12:13.310Z,98998.06
2024-01-15T14:14:41.789Z,98971.69
2024-01-15T14:17:09.033Z,98951.69
2024-01-15T14:19:36.867Z,98933.16
2024-01-15T14:22:04.785Z,98902.19
2024-01-15T14:24:31.883Z,98911.53
2024-01-15T14:26:59.830Z,98916.34
2024-01-15T14:29:27.835Z,98968.28
2024-01-15T14:31:55.003Z,99007.25
2024-01-15T14:34:25.279Z,99050.59
2024-01-15T14:36:55.450Z,99036.69
2024-01-15T14:39:27.127Z,99015.59
2024-01-15T14:41:55.478Z,99012.91
2024-01-15T14:44:22.738Z,99017.25
2024-01-15T14:46:49.791Z,99022.63
2024-01-15T14:49:18.627Z,99083.78
2024-01-15T14:51:46.070Z,99093.50
2024-01-15T14:54:13.123Z,99130.63
2024-01-15T14:56:40.573Z,99734.16
2024-01-15T14:59:07.989Z,99859.72
2024-01-15T15:01:35.000Z,99866.41
2024-01-15T15:04:02.278Z,99868.34
2024-01-15T15:06:30.818Z,99885.00
2024-01-15T15:09:00.907Z,99906.47
2024-01-15T15:11:28.064Z,99893.47
2024-01-15T15:13:55.100Z,99919.47
2024-01-15T15:16:22.121Z,99920.31
2024-01-15T15:18:49.288Z,99870.56
2024-01-15T15:21:16.690Z,99825.47
2024-01-15T15:23:43.826Z,99800.91
2024-01-15T15:26:10.957Z,99770.38
2024-01-15T15:28:38.478Z,99758.44
2024-01-15T15:31:09.801Z,99716.47
2024-01-15T15:33:37.489Z,99712.22
2024-01-15T15:36:06.573Z,99690.28
2024-01-15T15:38:34.097Z,99634.41
2024-01-15T15:41:01.488Z,99607.69
2024-01-15T15:43:29.050Z,99568.88
2024-01-15T15:45:56.745Z,99543.28
2024-01-15T15:48:24.199Z,99526.00
2024-01-15T15:50:52.911Z,99502.28
2024-01-15T15:53:23.592Z,99485.13
2024-01-15T15:55:50.687Z,99458.53
2024-01-15T15:58:17.761Z,99443.31
2024-01-15T16:00:45.126Z,99436.22
2024-01-15T16:03:12.487Z,99417.34
2024-01-15T16:05:45.849Z,99413.00
2024-01-15T16:08:19.588Z,99419.53
2024-01-15T16:10:47.612Z,99420.09
2024-01-15T16:13:15.337Z,99429.16
2024-01-15T16:15:42.683Z,99459.13
2024-01-15T16:23:19.129Z,99472.19
2024-01-15T16:23:33.635Z,99485.13
2024-01-15T16:24:08.673Z,99497.16
2024-01-15T16:26:31.776Z,99522.03
2024-01-15T16:29:00.889Z,99521.78
2024-01-15T16:31:29.326Z,99523.03
2024-01-15T16:34:01.756Z,99550.91
2024-01-15T16:36:32.953Z,99562.06
2024-01-15T16:39:00.382Z,99569.19
2024-01-15T16:41:27.500Z,99563.53
2024-01-15T16:43:54.595Z,99554.25
2024-01-15T16:46:21.811Z,99541.47
2024-01-15T16:48:48.975Z,99541.56
2024-01-15T16:51:16.244Z,99540.13
2024-01-15T16:53:43.312Z,99566.66
2024-01-15T16:56:10.865Z,99610.84
2024-01-15T16:58:37.821Z,99628.56
2024-01-15T17:01:05.433Z,99647.97
2024-01-15T17:03:32.604Z,99666.09
2024-01-15T17:05:59.700Z,99652.69
2024-01-15T17:08:26.861Z,99645.44
2024-01-15T17:10:53.963Z,99622.06
2024-01-15T17:13:21.037Z,99619.91
2024-01-15T17:15:48.070Z,99588.13
2024-01-15T17:18:15.198Z,99597.41
2024-01-15T17:20:45.455Z,99617.84
2024-01-15T17:23:12.713Z,99609.09
2024-01-15T17:25:39.845Z,99607.16
2024-01-15T17:28:07.039Z,99598.59
2024-01-15T17:30:34.358Z,99608.84
2024-01-15T17:33:01.790Z,99595.03
2024-01-15T17:35:29.668Z,99596.06
2024-01-15T17:37:56.754Z,99622.69
2024-01-15T17:40:23.847Z,99616.50
2024-01-15T17:42:53.485Z,99622.34
2024-01-15T17:45:20.710Z,99627.34
2024-01-15T17:47:50.675Z,99612.19
2024-01-15T17:50:20.158Z,99607.31
2024-01-15T17:52:47.495Z,99610.16
2024-01-15T17:55:14.683Z,99612.69
2024-01-15T17:57:42.118Z,99651.53
2024-01-15T18:00:10.487Z,99664.28
2024-01-15T18:02:37.790Z,99689.31
2024-01-15T18:05:05.582Z,99726.66
2024-01-15T18:07:32.727Z,99753.53
2024-01-15T18:10:00.296Z,99774.81
2024-01-15T18:12:27.513Z,99777.63
2024-01-15T18:14:55.191Z,99793.25
2024-01-15T18:17:22.551Z,99787.78
2024-01-15T18:19:49.630Z,99770.06
2024-01-15T18:22:16.772Z,99787.84
2024-01-15T18:24:43.807Z,99791.44
2024-01-15T18:27:10.848Z,99816.56
2024-01-15T18:29:38.265Z,99843.38
2024-01-15T18:32:06.091Z,99846.75
2024-01-15T18:34:35.788Z,99843.53
2024-01-15T18:37:03.019Z,99837.69
2024-01-15T18:39:30.166Z,99838.25
2024-01-15T18:41:57.546Z,99812.59
2024-01-15T18:44:24.702Z,99811.16
2024-01-15T18:46:52.026Z,99785.19
2024-01-15T18:49:20.866Z,99751.72
2024-01-15T18:51:54.230Z,99697.94
2024-01-15T18:54:22.116Z,99669.47
2024-01-15T18:56:49.345Z,99642.53
2024-01-15T18:59:16.716Z,99628.72
2024-01-15T19:01:45.162Z,99618.75
2024-01-15T19:04:13.379Z,99613.31
2024-01-15T19:06:41.907Z,99607.84
2024-01-15T19:09:12.162Z,99590.28
2024-01-15T19:11:43.312Z,99585.41
2024-01-15T19:14:11.409Z,99572.75
2024-01-15T19:16:39.382Z,99558.97
2024-01-15T19:19:07.385Z,99554.22
2024-01-15T19:21:35.346Z,99525.34
2024-01-15T19:24:06.316Z,99517.72
2024-01-15T19:26:34.506Z,99486.56
2024-01-15T19:29:02.978Z,99475.66
2024-01-15T19:31:33.794Z,99467.75
2024-01-15T19:34:02.025Z,99468.44
2024-01-15T19:36:29.582Z,99457.84
2024-01-15T19:38:56.661Z,99439.47
2024-01-15T19:41:23.811Z,99433.56
2024-01-15T19:43:50.866Z,99428.50
2024-01-15T19:46:18.094Z,99417.75
2024-01-15T19:48:45.231Z,99398.81
2024-01-15T19:51:15.599Z,99390.06
2024-01-15T19:56:10.781Z,99376.69
2024-01-15T19:58:38.649Z,99364.00
2024-01-15T20:01:06.475Z,99379.09
2024-01-15T20:03:34.090Z,99404.97
2024-01-15T20:06:01.589Z,99435.88
2024-01-15T20:08:29.313Z,99462.09
2024-01-15T20:10:59.971Z,99476.66
2024-01-15T20:13:27.260Z,99502.13
2024-01-15T20:15:54.327Z,99516.19
2024-01-15T20:18:21.501Z,99532.41
2024-01-15T20:20:49.332Z,99556.00
2024-01-15T20:23:16.457Z,99565.53
2024-01-15T20:25:43.598Z,99583.75
2024-01-15T20:28:11.883Z,99587.59
2024-01-15T20:30:39.180Z,99576.09
2024-01-15T20:33:07.563Z,99579.50
2024-01-15T20:35:35.006Z,99562.81
2024-01-15T20:38:02.656Z,99558.78
2024-01-15T20:40:32.712Z,99545.94
2024-01-15T20:43:01.070Z,99528.78
2024-01-15T20:45:30.368Z,99526.16
2024-01-15T20:47:59.815Z,99507.50
2024-01-15T20:50:27.565Z,99497.41
2024-01-15T20:52:54.736Z,99479.22
2024-01-15T20:55:21.836Z,99457.91
2024-01-15T20:57:48.850Z,99441.94
2024-01-15T21:00:16.497Z,99431.66
2024-01-15T21:02:43.720Z,99413.97
2024-01-15T21:05:11.012Z,99409.47
2024-01-15T21:07:38.072Z,99400.72
2024-01-15T21:10:05.402Z,99396.94
2024-01-15T21:12:32.490Z,99391.75
2024-01-15T21:14:59.498Z,99395.94
2024-01-15T21:17:26.983Z,99390.38
2024-01-15T21:19:57.175Z,99388.25
2024-01-15T21:22:24.440Z,99401.34
2024-01-15T21:24:51.592Z,99403.88
2024-01-15T21:27:18.728Z,99428.56
2024-01-15T21:29:46.069Z,99438.09
2024-01-15T21:32:13.192Z,99445.00
2024-01-15T21:34:40.730Z,99452.16
2024-01-15T21:37:07.936Z,99450.78
2024-01-15T21:39:35.051Z,99470.09
2024-01-15T21:42:02.081Z,99452.78
2024-01-15T21:44:29.417Z,99443.41
2024-01-15T21:46:56.663Z,99441.06
2024-01-15T21:49:23.801Z,99438.44
2024-01-15T21:51:51.315Z,99453.56
2024-01-15T21:54:18.412Z,99461.66
2024-01-15T21:56:45.676Z,99459.81
2024-01-15T21:59:12.806Z,99456.66
2024-01-15T22:01:40.601Z,99463.53
2024-01-15T22:04:08.841Z,99465.84
2024-01-15T22:06:38.859Z,99450.56
2024-01-15T22:09:06.039Z,99451.22
2024-01-15T22:11:33.104Z,99449.56
2024-01-15T22:14:00.194Z,99446.69
2024-01-15T22:16:27.773Z,99454.84
2024-01-15T22:18:54.946Z,99469.13
2024-01-15T22:21:22.054Z,99481.63
2024-01-15T22:23:49.233Z,99494.00
2024-01-15T22:26:16.466Z,99526.09
2024-01-15T22:28:43.422Z,99549.38
2024-01-15T22:31:11.262Z,99588.41
2024-01-15T22:33:38.565Z,99622.06
2024-01-15T22:36:06.003Z,99643.84
2024-01-15T22:38:33.072Z,99664.34
2024-01-15T22:41:00.344Z,99672.84
2024-01-15T22:43:27.922Z,99691.66
2024-01-15T22:45:55.935Z,99724.94
2024-01-15T22:48:23.243Z,99732.91
2024-01-15T22:50:50.454Z,99744.19
2024-01-15T22:53:17.617Z,99766.47
2024-01-15T22:55:44.680Z,99767.00
2024-01-15T22:58:11.955Z,99780.19
2024-01-15T23:00:39.105Z,99794.38
2024-01-15T23:03:06.347Z,99817.41
2024-01-15T23:05:33.800Z,99833.50
2024-01-15T23:08:01.453Z,99818.50
2024-01-15T23:10:28.569Z,99811.91
2024-01-15T23:12:55.609Z,99814.38
2024-01-15T23:15:24.472Z,99794.38
2024-01-15T23:17:52.217Z,99797.63
2024-01-15T23:20:20.124Z,99784.84
2024-01-15T23:22:47.237Z,99787.59
2024-01-15T23:25:14.268Z,99782.56
2024-01-15T23:27:42.575Z,99779.16
2024-01-15T23:30:10.747Z,99776.63
2024-01-15T23:32:38.098Z,99817.78
2024-01-15T23:35:05.640Z,99839.28
2024-01-15T23:37:32.930Z,99901.25
2024-01-15T23:39:59.968Z,99914.63
2024-01-15T23:42:27.859Z,99926.28
2024-01-15T23:44:54.934Z,99950.75
2024-01-15T23:47:21.952Z,99973.25
2024-01-15T23:49:49.001Z,99961.19
2024-01-15T23:52:16.077Z,99963.81
2024-01-15T23:54:43.553Z,99945.22
2024-01-15T23:57:10.711Z,99952.00
2024-01-15T23:59:39.325Z,99973.13
